Time;durP1;ratioP1;P1;durP2;ratioP2;P2;SDS_P1;SDS_P2;PMS_P1;PMS_P2;Temp;Humidity;BMP_temperature;BMP_pressure;BME280_temperature;BME280_humidity;BME280_pressure;Samples;Min_cycle;Max_cycle;Signal;HPM_P1;HPM_P2
2024/01/23 00:02:27;;;;;;;;;8.00;2.00;;;;;8.70;100.00;102339.66;5076884;27;46370;-87
2024/01/23 00:05:22;;;;;;;;;3.00;1.00;;;;;9.62;100.00;102539.78;5088817;27;45551;-85
2024/01/23 00:08:08;;;;;;;;;;;;;;;;;;;;;
2024/01/23 00:10:41;;;;;;;;;6.33;2.00;;;;;8.95;100.00;102414.03;5077323;28;71193;-88
2024/01/23 00:13:19;;;;;;;;;1.00;1.00;;;;;9.52;100.00;102523.16;5077178;27;45825;-87
2024/01/23 00:15:57;;;;;;;;;3.00;2.33;;;;;9.13;100.00;102460.41;5084138;27;45522;-86
2024/01/23 00:18:45;;;;;;;;;2.00;2.00;;;;;8.39;100.00;102333.09;5093301;27;45459;-86
2024/01/23 00:21:42;;;;;;;;;3.00;2.00;;;;;8.94;100.00;102432.53;5070908;28;45605;-86
2024/01/23 00:24:44;;;;;;;;;2.00;1.00;;;;;8.51;100.00;102385.63;5088672;27;45573;-87
2024/01/23 00:27:21;;;;;;;;;3.00;1.33;;;;;8.76;100.00;102445.09;5093923;27;45769;-86
2024/01/23 00:30:28;;;;;;;;;;;;;;;;;;;;;
2024/01/23 00:33:10;;;;;;;;;2.33;0.00;;;;;8.89;100.00;102477.47;5081498;28;71923;-86
2024/01/23 00:36:15;;;;;;;;;3.00;1.33;;;;;8.65;100.00;102417.09;5093106;27;45523;-86
2024/01/23 00:38:45;;;;;;;;;1.00;0.00;;;;;8.27;100.00;102372.75;5092528;27;45473;-86
2024/01/23 00:41:31;;;;;;;;;;;;;;;;;;;;;
2024/01/23 00:43:57;;;;;;;;;1.00;1.00;;;;;8.97;100.00;102485.25;5078372;28;72627;-86
2024/01/23 00:46:29;;;;;;;;;6.67;2.00;;;;;8.75;100.00;102461.81;5080932;28;46118;-86
2024/01/23 00:49:04;;;;;;;;;3.00;1.00;;;;;9.42;100.00;102580.53;5098339;27;45387;-86
2024/01/23 00:51:34;;;;;;;;;1.00;1.00;;;;;8.65;100.00;102412.72;5080976;28;45254;-86
2024/01/23 00:54:00;;;;;;;;;3.00;1.00;;;;;8.80;100.00;102461.75;5092351;27;45478;-85
2024/01/23 00:56:35;;;;;;;;;2.00;1.33;;;;;8.66;100.00;102422.38;5077532;27;47423;-85
2024/01/23 00:59:00;;;;;;;;;5.00;1.67;;;;;9.38;100.00;102565.63;5080576;28;45580;-85
2024/01/23 01:01:32;;;;;;;;;3.00;1.00;;;;;8.61;100.00;102454.94;5080454;28;45446;-86
2024/01/23 01:04:09;;;;;;;;;1.00;1.00;;;;;8.84;100.00;102459.03;5096927;27;45447;-85
2024/01/23 01:06:49;;;;;;;;;7.00;0.00;;;;;9.01;100.00;102497.53;5075787;28;46083;-86
2024/01/23 01:09:15;;;;;;;;;2.00;2.00;;;;;8.96;100.00;102499.38;5094721;27;45291;-85
2024/01/23 01:11:51;;;;;;;;;1.00;1.00;;;;;8.81;100.00;102484.59;5076798;28;45420;-86
2024/01/23 01:14:30;;;;;;;;;3.00;1.00;;;;;9.35;100.00;102573.59;5085606;27;45288;-86
2024/01/23 01:17:08;;;;;;;;;4.00;2.00;;;;;8.31;100.00;102412.25;5096397;27;45699;-86
2024/01/23 01:19:37;;;;;;;;;2.67;0.33;;;;;9.05;100.00;102559.94;5075127;28;45339;-85
2024/01/23 01:22:07;;;;;;;;;3.00;1.33;;;;;9.36;100.00;102608.78;5098898;27;45457;-87
2024/01/23 01:24:39;;;;;;;;;4.33;0.33;;;;;8.68;100.00;102469.81;5082664;28;44890;-87
2024/01/23 01:27:04;;;;;;;;;1.00;1.00;;;;;8.65;100.00;102478.66;5100439;27;47223;-87
2024/01/23 01:29:42;;;;;;;;;2.00;1.33;;;;;9.25;100.00;102594.88;5101282;27;45569;-87
2024/01/23 01:32:15;;;;;;;;;5.67;2.00;;;;;8.58;100.00;102466.41;5090927;27;45288;-87
2024/01/23 01:34:48;;;;;;;;;1.33;1.33;;;;;8.83;100.00;102517.13;5092249;27;45500;-87
2024/01/23 01:37:36;;;;;;;;;2.67;2.00;;;;;9.21;100.00;102601.94;5082889;28;45944;-87
2024/01/23 01:43:09;;;;;;;;;3.67;1.67;;;;;8.77;100.00;102541.78;5060503;28;45491;-88
2024/01/23 01:45:39;;;;;;;;;2.00;1.67;;;;;8.63;100.00;102519.13;5098388;27;45387;-87
2024/01/23 01:48:35;;;;;;;;;2.00;2.00;;;;;8.36;100.00;102479.00;5097576;27;46023;-87
2024/01/23 01:51:23;;;;;;;;;1.33;1.33;;;;;9.10;100.00;102647.84;5075877;28;45464;-88
2024/01/23 01:53:59;;;;;;;;;5.67;2.33;;;;;9.08;100.00;102642.59;5077777;28;45351;-86
2024/01/23 01:56:55;;;;;;;;;2.00;2.00;;;;;8.00;100.00;102431.03;5077357;28;45293;-87
2024/01/23 02:00:00;;;;;;;;;4.67;3.00;;;;;8.68;100.00;102578.84;5076358;28;47407;-87
2024/01/23 02:02:47;;;;;;;;;2.33;2.00;;;;;7.98;100.00;102454.78;5065701;27;45461;-88
2024/01/23 02:05:22;;;;;;;;;3.67;1.67;;;;;7.92;100.00;102451.34;5109220;27;45471;-87
2024/01/23 02:07:52;;;;;;;;;8.00;2.00;;;;;8.37;100.00;102537.88;5076640;27;45526;-86
2024/01/23 02:10:22;;;;;;;;;4.00;1.33;;;;;8.35;100.00;102540.50;5100109;27;45673;-87
2024/01/23 02:13:06;;;;;;;;;2.67;2.00;;;;;8.73;100.00;102634.19;5100606;27;45406;-88
2024/01/23 02:16:07;;;;;;;;;2.33;1.33;;;;;7.67;100.00;102456.81;5081386;27;45549;-88
2024/01/23 02:18:40;;;;;;;;;5.00;1.67;;;;;8.87;100.00;102645.44;5076988;27;45349;-87
2024/01/23 02:21:18;;;;;;;;;2.67;1.00;;;;;8.00;100.00;102515.34;5100727;27;45508;-86
2024/01/23 02:24:04;;;;;;;;;5.33;1.67;;;;;7.79;100.00;102467.25;5080338;27;45478;-87
2024/01/23 02:26:41;;;;;;;;;2.33;1.00;;;;;8.37;100.00;102580.06;5081432;27;45332;-87
2024/01/23 02:29:36;;;;;;;;;4.67;1.00;;;;;7.78;100.00;102491.84;5100146;27;45319;-88
2024/01/23 02:32:01;;;;;;;;;2.00;2.00;;;;;7.62;100.00;102447.22;5109394;27;46093;-88
2024/01/23 02:34:40;;;;;;;;;7.67;3.33;;;;;8.32;100.00;102576.56;5082093;27;45624;-87
2024/01/23 02:37:28;;;;;;;;;2.00;1.00;;;;;8.41;100.00;102594.94;5099946;27;45526;-87
2024/01/23 02:40:01;;;;;;;;;2.00;2.00;;;;;8.77;100.00;102672.81;5105153;27;45605;-87
2024/01/23 02:42:31;;;;;;;;;4.67;1.67;;;;;8.42;100.00;102595.81;5082104;27;45975;-87
2024/01/23 02:45:06;;;;;;;;;2.33;1.33;;;;;8.75;100.00;102690.44;5102302;27;45360;-88
2024/01/23 02:47:43;;;;;;;;;4.33;1.67;;;;;7.68;100.00;102499.84;5102861;27;44842;-87
2024/01/23 02:50:27;;;;;;;;;1.00;1.00;;;;;7.88;100.00;102533.91;5080783;27;45574;-89
2024/01/23 02:53:27;;;;;;;;;4.00;2.00;;;;;8.28;100.00;102604.72;5082363;27;46918;-88
2024/01/23 02:55:52;;;;;;;;;3.00;1.67;;;;;8.31;100.00;102619.66;5101603;27;45612;-88
2024/01/23 02:58:29;;;;;;;;;3.00;1.00;;;;;8.38;100.00;102645.06;5095620;27;45310;-88
2024/01/23 03:00:55;;;;;;;;;2.67;0.67;;;;;7.84;100.00;102557.66;5093014;27;45593;-88
2024/01/23 03:03:48;;;;;;;;;;;;;;;;;;;;;
2024/01/23 03:12:54;;;;;;;;;;;;;;;;;;;;;
2024/01/23 03:15:26;;;;;;;;;1.67;1.33;;;;;8.15;100.00;102579.31;5079919;28;75468;-88
2024/01/23 03:18:06;;;;;;;;;3.00;2.00;;;;;8.59;100.00;102704.66;5067106;28;45328;-88
2024/01/23 03:20:38;;;;;;;;;3.67;2.67;;;;;7.95;100.00;102554.06;5064365;27;45333;-88
2024/01/23 03:23:16;;;;;;;;;3.00;2.00;;;;;7.55;100.00;102499.06;5057940;28;45328;-89
2024/01/23 03:25:55;;;;;;;;;4.00;1.33;;;;;7.82;100.00;102577.84;5062126;28;45444;-88
2024/01/23 03:28:31;;;;;;;;;2.00;2.00;;;;;7.47;100.00;102508.75;5066964;28;45432;-87
2024/01/23 03:31:20;;;;;;;;;;;;;;;;;;;;;
2024/01/23 03:34:36;;;;;;;;;3.00;1.33;;;;;8.35;100.00;102651.22;5071334;28;72219;-88
2024/01/23 03:37:19;;;;;;;;;;;;;;;;;;;;;
2024/01/23 03:39:57;;;;;;;;;1.67;1.67;;;;;7.57;100.00;102535.91;5078480;28;71593;-87
2024/01/23 03:42:36;;;;;;;;;6.00;2.00;;;;;8.49;100.00;102676.59;5063581;28;45440;-87
2024/01/23 03:45:16;;;;;;;;;3.00;1.00;;;;;7.62;100.00;102542.91;5068964;27;45479;-86
2024/01/23 03:48:10;;;;;;;;;;;;;;;;;;;;;
2024/01/23 03:50:49;;;;;;;;;1.00;1.00;;;;;8.47;100.00;102715.31;5075748;28;72619;-86
2024/01/23 03:53:24;;;;;;;;;7.00;4.67;;;;;8.00;100.00;102616.34;5057265;28;45501;-86
2024/01/23 03:56:02;;;;;;;;;3.67;2.00;;;;;7.38;100.00;102545.69;5066362;28;45575;-86
2024/01/23 03:58:36;;;;;;;;;6.33;1.00;;;;;7.62;100.00;102585.03;5059358;28;45448;-87
2024/01/23 04:01:20;;;;;;;;;6.00;2.00;;;;;7.59;100.00;102587.66;5060517;28;45448;-86
2024/01/23 04:04:09;;;;;;;;;8.00;1.00;;;;;8.46;100.00;102717.06;5066843;27;45454;-86
2024/01/23 04:09:57;;;;;;;;;3.00;0.33;;;;;8.47;100.00;102728.50;5078608;28;46593;-86
2024/01/23 04:12:56;;;;;;;;;8.00;1.00;;;;;7.80;100.00;102607.72;5075535;28;45494;-86
2024/01/23 04:15:56;;;;;;;;;7.00;2.67;;;;;8.30;100.00;102736.53;5069658;28;45327;-86
2024/01/23 04:18:54;;;;;;;;;1.67;1.33;;;;;8.11;100.00;102684.78;5060428;28;45249;-87
2024/01/23 04:22:08;;;;;;;;;2.00;1.00;;;;;7.67;100.00;102609.56;5056199;28;46186;-87
2024/01/23 04:24:41;;;;;;;;;2.00;2.00;;;;;7.37;100.00;102527.25;5063507;28;45301;-88
2024/01/23 04:27:52;;;;;;;;;;;;;;;;;;;;;
2024/01/23 04:30:27;;;;;;;;;8.33;3.00;;;;;7.90;100.00;102648.91;5080904;28;72839;-89
2024/01/23 04:33:11;;;;;;;;;;;;;;;;;;;;;
2024/01/23 04:36:05;;;;;;;;;;;;;;;;;;;;;
2024/01/23 04:38:47;;;;;;;;;6.67;2.00;;;;;8.37;100.00;102703.97;5083172;28;68783;-88
2024/01/23 04:41:32;;;;;;;;;7.00;2.00;;;;;8.66;100.00;102743.28;5091817;27;45579;-88
2024/01/23 04:44:12;;;;;;;;;;;;;;;;;;;;;
2024/01/23 04:46:50;;;;;;;;;3.67;2.33;;;;;7.69;100.00;102599.03;5075107;28;72680;-88
2024/01/23 04:49:31;;;;;;;;;5.33;2.67;;;;;8.70;100.00;102803.88;5058507;27;45824;-87
2024/01/23 04:52:04;;;;;;;;;2.00;1.33;;;;;7.65;100.00;102589.41;5061485;28;45331;-86
2024/01/23 04:54:41;;;;;;;;;4.67;3.00;;;;;7.96;100.00;102664.69;5064016;28;45577;-87
2024/01/23 04:57:19;;;;;;;;;;;;;;;;;;;;;
2024/01/23 04:59:57;;;;;;;;;7.67;2.33;;;;;7.55;100.00;102606.13;5072052;28;67218;-85
2024/01/23 05:02:32;;;;;;;;;6.67;1.00;;;;;8.44;100.00;102733.78;5065911;27;45653;-86
2024/01/23 05:05:08;;;;;;;;;7.00;2.67;;;;;8.37;100.00;102725.06;5095328;27;46578;-86
2024/01/23 05:07:35;;;;;;;;;6.00;2.00;;;;;8.81;100.00;102830.19;5095016;27;45351;-87
2024/01/23 05:10:21;;;;;;;;;;;;;;;;;;;;;
2024/01/23 05:12:48;;;;;;;;;4.00;2.33;;;;;8.81;100.00;102825.81;5068662;27;72138;-86
2024/01/23 05:15:35;;;;;;;;;1.67;1.67;;;;;8.22;100.00;102704.03;5092963;27;45930;-87
2024/01/23 05:18:18;;;;;;;;;1.33;1.33;;;;;7.73;100.00;102614.78;5075760;27;45617;-86
2024/01/23 05:21:13;;;;;;;;;10.00;4.00;;;;;7.68;100.00;102606.06;5072968;27;45615;-86
2024/01/23 05:24:17;;;;;;;;;;;;;;;;;;;;;
2024/01/23 05:27:22;;;;;;;;;;;;;;;;;;;;;
2024/01/23 05:30:26;;;;;;;;;7.00;3.00;;;;;8.78;100.00;102810.00;5086272;27;72006;-86
2024/01/23 05:33:19;;;;;;;;;6.33;1.67;;;;;8.16;100.00;102710.22;5075621;27;45369;-84
2024/01/23 05:36:06;;;;;;;;;6.00;1.67;;;;;8.78;100.00;102857.50;5083649;27;45265;-84
2024/01/23 05:38:32;;;;;;;;;4.00;2.00;;;;;7.79;100.00;102675.31;5082026;27;47814;-84
2024/01/23 05:41:00;;;;;;;;;3.67;1.00;;;;;8.08;100.00;102721.72;5081645;28;45618;-84
2024/01/23 05:43:27;;;;;;;;;8.00;2.33;;;;;8.80;100.00;102857.50;5079256;28;45363;-83
2024/01/23 05:46:32;;;;;;;;;9.00;3.00;;;;;8.17;100.00;102751.50;5078930;28;45383;-84
2024/01/23 05:49:19;;;;;;;;;;;;;;;;;;;;;
2024/01/23 05:51:52;;;;;;;;;3.00;1.00;;;;;7.97;100.00;102716.50;5062937;28;71710;-85
2024/01/23 05:55:01;;;;;;;;;;;;;;;;;;;;;
2024/01/23 06:01:18;;;;;;;;;4.00;1.67;;;;;7.72;100.00;102710.47;5052537;27;46931;-88
2024/01/23 06:04:08;;;;;;;;;3.33;1.00;;;;;8.21;100.00;102787.47;5069065;28;45444;-87
2024/01/23 06:07:41;;;;;;;;;;;;;;;;;;;;;
2024/01/23 06:10:20;;;;;;;;;6.67;3.00;;;;;8.22;100.00;102769.91;5022305;28;45544;-87
2024/01/23 06:12:47;;;;;;;;;4.67;3.00;;;;;8.00;100.00;102763.03;5079551;28;46592;-89
2024/01/23 06:15:23;;;;;;;;;4.00;2.00;;;;;8.13;100.00;102749.78;5062252;28;45460;-85
2024/01/23 06:18:13;;;;;;;;;;;;;;;;;;;;;
2024/01/23 06:21:12;;;;;;;;;2.67;2.00;;;;;8.64;100.00;102874.28;5069338;28;71920;-88
2024/01/23 06:24:02;;;;;;;;;5.33;3.33;;;;;7.82;100.00;102711.28;5080282;28;46014;-86
2024/01/23 06:27:43;;;;;;;;;;;;;;;;;;;;;
2024/01/23 06:33:58;;;;;;;;;3.00;2.00;;;;;7.77;100.00;102705.19;4974554;28;45639;-85
2024/01/23 06:40:26;;;;;;;;;4.00;3.00;;;;;8.85;100.00;102898.78;5077920;28;45435;-85
2024/01/23 06:53:57;;;;;;;;;4.00;2.00;;;;;7.99;100.00;102740.19;5057271;28;45408;-85
2024/01/23 06:57:12;;;;;;;;;;;;;;;;;;;;;
2024/01/23 07:00:03;;;;;;;;;8.00;4.00;;;;;8.70;100.00;102843.47;5070528;28;72712;-85
2024/01/23 07:02:48;;;;;;;;;2.33;1.33;;;;;7.91;100.00;102724.44;5060427;27;47350;-86
2024/01/23 07:05:22;;;;;;;;;7.67;3.00;;;;;8.61;100.00;102818.91;5072682;28;45517;-86
2024/01/23 07:08:09;;;;;;;;;5.33;3.00;;;;;8.35;100.00;102814.69;5064377;28;45378;-86
2024/01/23 07:14:17;;;;;;;;;7.67;2.67;;;;;8.99;100.00;102903.09;5075608;28;46771;-86
2024/01/23 07:17:32;;;;;;;;;;;;;;;;;;;;;
2024/01/23 07:20:24;;;;;;;;;4.67;2.00;;;;;7.93;100.00;102720.03;5069643;28;69694;-86
2024/01/23 07:22:52;;;;;;;;;3.33;2.33;;;;;8.07;100.00;102754.22;5073589;28;45459;-84
2024/01/23 07:25:22;;;;;;;;;12.00;7.67;;;;;8.72;100.00;102869.84;5060930;28;47247;-85
2024/01/23 07:27:52;;;;;;;;;7.00;3.00;;;;;8.85;100.00;102901.41;5080542;28;45476;-84
2024/01/23 07:30:20;;;;;;;;;8.00;4.67;;;;;8.73;100.00;102882.16;5077480;28;45565;-85
2024/01/23 07:32:50;;;;;;;;;2.33;2.33;;;;;8.79;100.00;102858.38;5058839;28;46164;-84
2024/01/23 07:35:28;;;;;;;;;9.00;2.33;;;;;8.64;100.00;102856.69;5054592;28;47476;-84
2024/01/23 07:37:57;;;;;;;;;11.33;4.00;;;;;8.38;100.00;102779.50;5060224;28;45463;-84
2024/01/23 07:40:22;;;;;;;;;3.00;3.00;;;;;8.01;100.00;102751.59;5079399;28;45424;-84
2024/01/23 07:42:48;;;;;;;;;4.67;2.67;;;;;8.93;100.00;102909.28;5074944;28;45444;-83
2024/01/23 07:45:16;;;;;;;;;8.67;4.00;;;;;8.28;100.00;102765.50;5062258;28;47812;-84
2024/01/23 07:47:43;;;;;;;;;5.33;2.00;;;;;8.72;100.00;102849.63;5065914;28;45476;-85
2024/01/23 07:50:09;;;;;;;;;7.00;3.67;;;;;8.51;100.00;102823.38;5060607;28;45532;-85
2024/01/23 07:52:35;;;;;;;;;4.00;3.00;;;;;8.84;100.00;102899.66;5064452;28;45608;-82
2024/01/23 07:55:02;;;;;;;;;8.33;4.00;;;;;8.72;100.00;102854.00;5068375;28;45575;-81
2024/01/23 07:57:31;;;;;;;;;4.00;3.67;;;;;9.07;100.00;102925.00;5076712;28;45506;-82
2024/01/23 07:59:57;;;;;;;;;7.00;3.33;;;;;8.86;100.00;102897.91;5075863;28;45494;-82
2024/01/23 08:02:24;;;;;;;;;9.00;3.00;;;;;8.87;100.00;102911.94;5060351;27;45486;-81
2024/01/23 08:04:49;;;;;;;;;3.00;2.00;;;;;8.38;100.00;102795.34;5088006;27;45519;-81
2024/01/23 08:07:14;;;;;;;;;8.33;2.33;;;;;8.67;100.00;102859.31;5077702;27;45368;-82
2024/01/23 08:10:01;;;;;;;;;2.67;2.33;;;;;9.30;100.00;102965.31;5076312;28;45512;-82
2024/01/23 08:12:29;;;;;;;;;9.00;3.00;;;;;8.73;100.00;102843.47;5077280;28;45392;-82
2024/01/23 08:14:55;;;;;;;;;4.00;2.33;;;;;8.40;100.00;102797.97;5085967;27;45453;-84
2024/01/23 08:17:20;;;;;;;;;7.00;2.67;;;;;9.07;100.00;102901.25;5077408;28;45496;-83
2024/01/23 08:19:46;;;;;;;;;6.33;3.00;;;;;8.53;100.00;102829.53;5060736;28;45593;-83
2024/01/23 08:22:11;;;;;;;;;6.33;6.33;;;;;8.52;100.00;102798.75;5072152;27;45564;-84
2024/01/23 08:24:37;;;;;;;;;10.33;3.00;;;;;8.68;100.00;102858.44;5080748;27;45505;-83
2024/01/23 08:27:04;;;;;;;;;7.33;3.00;;;;;8.82;100.00;102848.66;5094213;27;45438;-82
2024/01/23 08:29:30;;;;;;;;;9.00;7.00;;;;;8.86;100.00;102852.16;5063946;27;45371;-82
2024/01/23 08:31:55;;;;;;;;;2.00;2.00;;;;;8.77;100.00;102853.09;5080781;27;45337;-82
2024/01/23 08:34:22;;;;;;;;;7.00;2.00;;;;;8.88;100.00;102859.19;5057633;28;46897;-82
2024/01/23 08:36:56;;;;;;;;;3.00;3.00;;;;;9.02;100.00;102853.81;5064289;27;45459;-82
2024/01/23 08:39:22;;;;;;;;;7.00;3.33;;;;;8.99;100.00;102872.31;5077873;28;45577;-82
2024/01/23 08:41:48;;;;;;;;;3.67;3.00;;;;;9.58;100.00;102939.59;5076980;28;47059;-82
2024/01/23 08:44:13;;;;;;;;;1.67;1.67;;;;;9.23;100.00;102881.75;5076396;27;45605;-82
2024/01/23 08:46:39;;;;;;;;;4.67;4.00;;;;;9.07;100.00;102862.53;5076332;27;45483;-82
2024/01/23 08:49:06;;;;;;;;;9.33;3.00;;;;;8.95;100.00;102852.09;5079219;27;45394;-82
2024/01/23 08:51:32;;;;;;;;;4.33;3.33;;;;;9.71;100.00;102955.31;5077583;27;45504;-83
2024/01/23 08:53:57;;;;;;;;;7.33;4.33;;;;;9.82;100.00;102982.50;5077190;28;45389;-83
2024/01/23 08:56:23;;;;;;;;;3.33;3.33;;;;;9.66;100.00;102938.59;5076016;28;45429;-83
2024/01/23 08:58:49;;;;;;;;;7.00;5.00;;;;;9.57;100.00;102904.34;5077752;28;45376;-82
2024/01/23 09:01:15;;;;;;;;;4.67;4.33;;;;;9.56;100.00;102910.53;5079207;27;45376;-82
2024/01/23 09:03:43;;;;;;;;;9.00;4.00;;;;;9.36;100.00;102883.41;5087121;27;45675;-82
2024/01/23 09:06:12;;;;;;;;;5.67;4.00;;;;;9.96;100.00;102998.22;5078475;27;45795;-82
2024/01/23 09:08:41;;;;;;;;;3.00;2.00;;;;;9.23;100.00;102843.03;5064320;28;45492;-83
2024/01/23 09:11:06;;;;;;;;;2.00;1.00;;;;;9.27;100.00;102849.16;5089137;27;45525;-83
2024/01/23 09:13:32;;;;;;;;;8.67;3.00;;;;;9.37;100.00;102835.88;5096862;27;45765;-83
2024/01/23 09:15:58;;;;;;;;;10.50;2.00;;;;;9.20;100.00;102808.75;5082865;27;45336;-83
2024/01/23 09:18:24;;;;;;;;;4.67;3.00;;;;;9.59;100.00;102877.91;5082156;27;45395;-84
2024/01/23 09:20:49;;;;;;;;;7.00;3.33;;;;;9.51;100.00;102829.59;5084408;27;45389;-83
2024/01/23 09:23:15;;;;;;;;;6.67;3.00;;;;;10.24;100.00;102949.47;5091552;27;47996;-84
2024/01/23 09:25:40;;;;;;;;;7.00;4.00;;;;;10.03;100.00;102922.38;5083447;27;45500;-83
2024/01/23 09:28:05;;;;;;;;;7.00;2.67;;;;;10.14;100.00;102916.13;5081538;27;45442;-84
2024/01/23 09:30:31;;;;;;;;;7.33;4.33;;;;;10.31;100.00;102930.00;5072963;27;45721;-83
2024/01/23 09:32:58;;;;;;;;;5.00;3.00;;;;;10.44;100.00;102946.59;5085521;27;45444;-84
2024/01/23 09:35:23;;;;;;;;;6.67;4.00;;;;;10.24;100.00;102932.75;5081422;28;45454;-83
2024/01/23 09:37:49;;;;;;;;;5.67;4.33;;;;;10.20;100.00;102908.13;5069188;28;45315;-84
2024/01/23 09:40:17;;;;;;;;;7.67;5.00;;;;;9.87;100.00;102839.75;5062019;28;45502;-83
2024/01/23 09:42:44;;;;;;;;;6.67;4.00;;;;;10.52;100.00;102965.91;5057353;28;46984;-84
2024/01/23 09:45:18;;;;;;;;;11.67;5.00;;;;;9.95;100.00;102857.25;5071159;28;45497;-84
2024/01/23 09:47:48;;;;;;;;;12.33;4.00;;;;;9.85;100.00;102833.59;5080658;28;45545;-84
2024/01/23 09:50:16;;;;;;;;;10.00;3.00;;;;;9.82;100.00;102801.91;5074632;27;45499;-84
2024/01/23 09:52:46;;;;;;;;;9.00;4.00;;;;;10.18;100.00;102866.69;5085223;27;45438;-84
2024/01/23 09:55:12;;;;;;;;;11.33;4.33;;;;;10.63;100.00;102958.72;5060802;28;45500;-84
2024/01/23 09:57:39;;;;;;;;;4.00;4.00;;;;;9.67;100.00;102779.19;5077087;28;45422;-84
2024/01/23 10:00:07;;;;;;;;;5.00;4.00;;;;;10.30;100.00;102871.84;5079479;27;45434;-84
2024/01/23 10:02:38;;;;;;;;;7.33;3.00;;;;;9.86;100.00;102762.22;5075578;27;47074;-83
2024/01/23 10:05:07;;;;;;;;;5.00;4.00;;;;;10.69;100.00;102910.13;5082679;27;45366;-84
2024/01/23 10:07:36;;;;;;;;;5.33;4.00;;;;;9.91;100.00;102770.09;5085614;27;45415;-84
2024/01/23 10:10:09;;;;;;;;;1.33;1.33;;;;;9.79;100.00;102780.81;5065404;27;45479;-82
2024/01/23 10:12:45;;;;;;;;;10.67;3.67;;;;;10.00;100.00;102803.47;5088151;27;45607;-82
2024/01/23 10:15:18;;;;;;;;;4.00;2.00;;;;;10.09;100.00;102796.28;5090362;27;45477;-84
2024/01/23 10:17:47;;;;;;;;;3.33;3.00;;;;;10.18;100.00;102830.56;5060347;28;45647;-83
2024/01/23 10:20:13;;;;;;;;;3.67;3.00;;;;;10.05;100.00;102784.00;5059068;28;45289;-84
2024/01/23 10:22:43;;;;;;;;;3.33;3.33;;;;;10.17;100.00;102820.91;5084143;27;45450;-84
2024/01/23 10:25:13;;;;;;;;;4.00;4.00;;;;;9.98;100.00;102794.69;5082946;27;45476;-84
2024/01/23 10:27:43;;;;;;;;;12.00;6.00;;;;;10.40;100.00;102852.31;5083127;27;45325;-83
2024/01/23 10:30:09;;;;;;;;;9.33;5.00;;;;;10.67;100.00;102918.06;5082905;27;45666;-84
2024/01/23 10:32:37;;;;;;;;;6.67;4.00;;;;;9.91;100.00;102789.44;5074021;27;47780;-84
2024/01/23 10:35:03;;;;;;;;;8.00;4.00;;;;;9.82;100.00;102783.41;5065568;28;45490;-84
2024/01/23 10:37:34;;;;;;;;;5.00;3.00;;;;;10.44;100.00;102868.13;5070713;28;45511;-83
2024/01/23 10:40:05;;;;;;;;;5.00;4.33;;;;;10.67;100.00;102938.34;5088782;27;45470;-84
2024/01/23 10:42:31;;;;;;;;;3.33;3.33;;;;;10.30;100.00;102887.72;5066401;28;45828;-83
2024/01/23 10:44:59;;;;;;;;;8.67;6.00;;;;;10.00;100.00;102827.25;5077294;28;45398;-83
2024/01/23 10:47:35;;;;;;;;;9.67;4.00;;;;;10.21;100.00;102840.25;5081168;27;45399;-84
2024/01/23 10:50:00;;;;;;;;;14.33;6.67;;;;;9.89;100.00;102772.75;5072523;27;45331;-84
2024/01/23 10:52:35;;;;;;;;;5.67;4.00;;;;;10.71;100.00;102882.72;5086767;27;46280;-83
2024/01/23 10:55:09;;;;;;;;;5.00;4.00;;;;;10.00;100.00;102732.09;5071245;27;45575;-84
2024/01/23 10:57:37;;;;;;;;;5.33;4.00;;;;;10.67;100.00;102874.84;5081109;27;45581;-84
2024/01/23 11:00:07;;;;;;;;;7.00;4.00;;;;;10.36;100.00;102832.09;5079587;27;45557;-85
2024/01/23 11:03:05;;;;;;;;;4.00;3.67;;;;;10.83;100.00;102919.59;5075046;27;45476;-84
2024/01/23 11:05:52;;;;;;;;;5.00;3.00;;;;;10.85;100.00;102882.53;5086464;27;46095;-84
2024/01/23 11:08:45;;;;;;;;;11.67;4.67;;;;;10.87;100.00;102884.25;5092431;27;45458;-84
2024/01/23 11:11:13;;;;;;;;;10.00;4.33;;;;;10.89;100.00;102868.34;5087951;27;45550;-82
2024/01/23 11:13:49;;;;;;;;;5.67;3.00;;;;;10.91;100.00;102842.72;5093006;27;47044;-84
2024/01/23 11:16:15;;;;;;;;;9.33;3.67;;;;;10.49;100.00;102774.59;5093681;27;45240;-84
2024/01/23 11:18:40;;;;;;;;;4.67;3.67;;;;;10.20;100.00;102744.19;5082289;27;45604;-83
2024/01/23 11:21:05;;;;;;;;;8.67;5.33;;;;;11.04;100.00;102843.41;5089732;27;45263;-83
2024/01/23 11:23:36;;;;;;;;;9.67;4.00;;;;;10.70;100.00;102768.97;5081731;27;46288;-83
2024/01/23 11:26:22;;;;;;;;;8.00;4.00;;;;;10.65;100.00;102752.28;5082626;27;45372;-85
2024/01/23 11:29:04;;;;;;;;;7.33;4.67;;;;;10.68;100.00;102742.53;5082614;27;45488;-82
2024/01/23 11:31:37;;;;;;;;;3.00;2.67;;;;;10.99;100.00;102809.06;5084757;27;45466;-82
2024/01/23 11:34:21;;;;;;;;;9.00;4.67;;;;;11.13;100.00;102832.63;5071888;27;46136;-82
2024/01/23 11:36:46;;;;;;;;;5.33;5.00;;;;;10.56;100.00;102721.56;5076232;28;45364;-83
2024/01/23 11:39:15;;;;;;;;;3.67;3.00;;;;;10.51;100.00;102702.22;5082772;27;45268;-83
2024/01/23 11:41:48;;;;;;;;;5.00;5.00;;;;;10.45;100.00;102719.09;5084418;27;45610;-82
2024/01/23 11:44:15;;;;;;;;;8.00;5.67;;;;;10.47;100.00;102736.72;5079068;27;46077;-83
2024/01/23 11:46:49;;;;;;;;;4.67;3.33;;;;;10.11;100.00;102662.28;5065153;28;45451;-83
2024/01/23 11:49:15;;;;;;;;;5.00;4.33;;;;;10.72;100.00;102743.34;5077651;27;45425;-83
2024/01/23 11:51:42;;;;;;;;;6.67;4.00;;;;;10.42;100.00;102713.84;5078676;27;45376;-82
2024/01/23 11:54:09;;;;;;;;;3.00;2.00;;;;;11.02;100.00;102802.84;5094132;27;45715;-84
2024/01/23 11:56:40;;;;;;;;;3.67;3.33;;;;;10.27;100.00;102649.75;5083880;27;45394;-83
2024/01/23 11:59:05;;;;;;;;;3.33;3.00;;;;;10.56;100.00;102692.47;5092386;27;45493;-83
2024/01/23 12:01:34;;;;;;;;;8.33;4.33;;;;;10.90;100.00;102762.44;5089779;27;45533;-83
2024/01/23 12:04:00;;;;;;;;;7.67;3.67;;;;;10.61;100.00;102690.59;5093943;27;45327;-83
2024/01/23 12:06:26;;;;;;;;;8.00;7.33;;;;;10.67;100.00;102698.44;5088258;27;45245;-83
2024/01/23 12:08:51;;;;;;;;;8.67;4.67;;;;;10.45;100.00;102679.41;5076110;27;45439;-83
2024/01/23 12:11:18;;;;;;;;;7.33;3.33;;;;;10.96;100.00;102754.38;5077676;27;45415;-83
2024/01/23 12:14:10;;;;;;;;;6.00;4.00;;;;;11.07;100.00;102758.59;5095782;27;45603;-84
2024/01/23 12:16:36;;;;;;;;;5.33;4.00;;;;;10.37;100.00;102667.22;5093385;27;45532;-83
2024/01/23 12:19:01;;;;;;;;;8.67;4.00;;;;;10.51;100.00;102675.78;5077376;27;45493;-84
2024/01/23 12:21:29;;;;;;;;;9.00;5.33;;;;;10.62;100.00;102712.66;5079819;27;45220;-84
2024/01/23 12:23:58;;;;;;;;;12.00;4.00;;;;;10.53;100.00;102687.22;5079543;27;45554;-83
2024/01/23 12:26:24;;;;;;;;;8.33;3.67;;;;;11.10;100.00;102771.78;5077421;27;45754;-84
2024/01/23 12:28:49;;;;;;;;;6.33;6.00;;;;;10.73;100.00;102678.94;5091731;27;45498;-83
2024/01/23 12:31:19;;;;;;;;;3.67;3.67;;;;;10.50;100.00;102633.50;5083405;27;45373;-84
2024/01/23 12:33:44;;;;;;;;;5.67;4.00;;;;;10.59;100.00;102668.59;5071466;27;47029;-84
2024/01/23 12:36:16;;;;;;;;;5.33;2.67;;;;;10.17;100.00;102584.69;5082508;27;45581;-84
2024/01/23 12:38:44;;;;;;;;;12.00;4.00;;;;;11.10;100.00;102766.50;5060136;28;45322;-85
2024/01/23 12:41:11;;;;;;;;;5.33;5.00;;;;;10.40;100.00;102633.63;5083023;27;45308;-85
2024/01/23 12:43:40;;;;;;;;;6.00;6.00;;;;;10.34;100.00;102627.59;5081326;27;47044;-83
2024/01/23 12:46:13;;;;;;;;;5.67;3.00;;;;;10.31;100.00;102609.13;5072953;27;45475;-83
2024/01/23 12:48:41;;;;;;;;;12.67;5.00;;;;;10.46;100.00;102637.97;5067123;28;45462;-84
2024/01/23 12:51:07;;;;;;;;;7.67;4.33;;;;;10.09;100.00;102553.06;5075971;27;45549;-85
2024/01/23 12:53:35;;;;;;;;;7.00;5.00;;;;;10.14;100.00;102558.31;5074538;28;48457;-83
2024/01/23 12:56:00;;;;;;;;;8.00;6.33;;;;;11.06;100.00;102738.34;5064138;28;45479;-84
2024/01/23 12:58:26;;;;;;;;;4.00;3.00;;;;;10.70;100.00;102671.91;5088651;27;45630;-84
2024/01/23 13:00:54;;;;;;;;;4.33;4.00;;;;;10.51;100.00;102611.41;5066988;28;45587;-84
2024/01/23 13:03:21;;;;;;;;;6.33;5.00;;;;;10.25;100.00;102551.94;5091894;27;45510;-85
2024/01/23 13:05:47;;;;;;;;;4.33;3.00;;;;;10.70;100.00;102581.94;5099212;27;45343;-86
2024/01/23 13:08:12;;;;;;;;;12.00;7.67;;;;;10.32;100.00;102544.75;5094917;27;45346;-85
2024/01/23 13:10:41;;;;;;;;;5.67;5.67;;;;;10.16;100.00;102517.72;5096808;27;45493;-84
2024/01/23 13:13:08;;;;;;;;;4.67;3.33;;;;;11.09;100.00;102664.16;5099421;27;47062;-88